Uralsk, Kazakhstan

10:26 PM AQTT on October 21, 2014 (GMT +0500)
Uralsk | Change Station
CLOSE
Current Station
Airport
Location: Uralsk,
Elevation: 125 ft
Nearby Weather Stations

Elev 125 ft 51.15 °N, 51.54 °E | Updated 26 minutes ago

Light Rain Showers
Light Showers Rain Mist
46 °F
Feels Like 40 °F
N
16
Wind Variable Wind from South

Today
High -- | Low -- °F
--% Chance of Precip.
Yesterday
High -- | Low -- °F
Precip. -- in
8:06 AM 6:29 PM
Waning Crescent, 5% visible
Pressure 29.56 in
Visibility 3.1 miles
Clouds Mostly Cloudy 300 ft
Overcast 1600 ft
Windchill 40 °F
Dew Point 46 °F
Humidity 100%
Rainfall 0.00 in
Snow Depth Not available.
UV 0 out of 12
Pollen Not available.
Air Quality Not available.
Flu Activity Not available.
METAR UARR 211700Z 19007MPS 5000 -SHRA BR BKN003 OVC016CB 08/08 Q1001 R88/////// TEMPO 1500 -SHRA BR BKN003 RMK QBB110 QFE747/0997

More Conditions Fewer Conditions

Pressure 29.56 in
Visibility 3.1 miles
Clouds Mostly Cloudy 300 ft
Overcast 1600 ft
Windchill 40 °F
Dew Point 46 °F
Humidity 100%
Rainfall 0.00 in
Snow Depth Not available.
UV 0 out of 12
Pollen Not available.
Air Quality Not available.
Flu Activity Not available.
METAR UARR 211700Z 19007MPS 5000 -SHRA BR BKN003 OVC016CB 08/08 Q1001 R88/////// TEMPO 1500 -SHRA BR BKN003 RMK QBB110 QFE747/0997

More Conditions Fewer Conditions

10-Day Weather Forecast

Almanac

Astronomy

Oct. 21, 2014 Rise Set
Actual Time 8:06 AM AQTT 6:29 PM AQTT
Civil Twilight 7:33 AM AQTT 7:03 PM AQTT
Nautical Twilight 6:54 AM AQTT 7:41 PM AQTT
Astronomical Twilight 6:16 AM AQTT 8:19 PM AQTT
Moon 5:12 AM AQTT 5:24 PM AQTT
Length of Visible Light 11h 29m
Length of Day
10h 22m
Tomorrow will be 3m 43s shorter.
Waning Crescent, 5% of the Moon is Illuminated
Today
Waning Crescent
Oct 23
New
Oct 30
First Quarter
Nov 6
Full
Nov 14
Last Quarter

Today's Extremes

Country Highs Country Lows

Community

WunderPhotos

Upload Photos

1,763,726 photos uploaded!

Nearby

Snow Depth

Not available.

Earthquake Activity

City Distance Mag. Time & Date
No recent earthquake activity has been reported nearby.
Minimum magnitude displayed is 2.5.

Coastal Water Temperatures

Place Temperature
No Stations Reporting

Nearby Weather Stations